الصفحة الرئيسية
METAR-TAF:

METAR-TAF

مطار :

مطار سينتاني

جايابورا, إندونيسيا

دائرة عرض: 02-34-37S, خط طول: 140-30-58E, ارتفاع: 88 متر

مراقبة الطقس الحالي

تاريخ ووقت الإصدار 2ساعات و 27 دقيقة قبل الساعة 15:00UTC
ريح 2 عقدة من الشمال
درجة الحرارة 26°درجة مئوية
الرطوبة 84%
ضغط 1005 hPa
الرؤية: 8000 متر
غيوم قليلة على ارتفاع 1100 قدم, مزنة ركامية.
غيوم متفرقة على ارتفاع 1200 قدم
عاصفة رعدية بالجوار

METAR: WAJJ 151500Z 36002KT 8000 VCTS FEW011CB SCT012 26/23 Q1005 NOSIG

زمن: 00:27 (17:27 UTC)


TAF: مفقودة

أرصاد الطقس والتوقعات من أكثر من 4000 مطار (تقارير الطقس للمطار METAR والتنبؤ بالطقس بالمطارTAF).

المحطات المتاحة هي النقط الصفراء والحمراء على الخريطة.

حرك المؤشر فوق النقطة لمعرفة اسم المحطة.

ثم انقر لمعرفة أرصاد وتوقعات الطقس.

لتغيير الخارطة: اضغط على الأزرار الخضراء مع رمز الصليب الأسود للتكبير. على الزر الأخضر مع شرطة للتصغير، أو على الأسهم الخضراء للخرائط المجاورة.


METAR-TAF: